Time;durP1;ratioP1;P1;durP2;ratioP2;P2;SDS_P1;SDS_P2;PMS_P1;PMS_P2;Temp;Humidity;BMP_temperature;BMP_pressure;BME280_temperature;BME280_humidity;BME280_pressure;Samples;Min_cycle;Max_cycle;Signal;HPM_P1;HPM_P2
2023/01/06 00:01:15;;;;;;;12.25;3.08;;;;;;;10.25;100.00;101696.16;10375172;28;20069;-66
2023/01/06 00:06:15;;;;;;;8.65;2.38;;;;;;;10.22;100.00;101685.69;10357215;28;20088;-65
2023/01/06 00:11:16;;;;;;;5.05;2.70;;;;;;;10.19;100.00;101685.19;10372698;28;20168;-65
2023/01/06 00:16:18;;;;;;;6.40;2.95;;;;;;;10.21;100.00;101688.56;10374896;28;20121;-64
2023/01/06 00:21:19;;;;;;;8.73;4.25;;;;;;;10.19;100.00;101667.09;10373605;28;20141;-65
2023/01/06 00:26:19;;;;;;;9.02;4.70;;;;;;;10.21;100.00;101693.97;10377488;28;20046;-65
2023/01/06 00:31:20;;;;;;;5.85;2.78;;;;;;;10.19;100.00;101679.78;10385016;28;20030;-65
2023/01/06 00:36:20;;;;;;;11.45;4.28;;;;;;;10.27;100.00;101673.50;10363667;28;20037;-66
2023/01/06 00:46:40;;;;;;;5.18;2.65;;;;;;;10.24;100.00;101658.44;10382338;28;20034;-65
2023/01/06 00:51:40;;;;;;;4.13;3.35;;;;;;;10.23;100.00;101637.81;10381604;28;20034;-66
2023/01/06 00:56:49;;;;;;;4.28;2.95;;;;;;;10.24;100.00;101648.47;10363915;28;20026;-66
2023/01/06 01:01:51;;;;;;;4.30;3.75;;;;;;;10.22;100.00;101644.25;10381009;28;20045;-65
2023/01/06 01:06:51;;;;;;;9.13;3.47;;;;;;;10.23;100.00;101641.34;10382989;28;20130;-65
2023/01/06 01:12:11;;;;;;;5.90;3.45;;;;;;;10.15;100.00;101633.28;10388886;28;20041;-65
2023/01/06 01:17:12;;;;;;;3.90;3.40;;;;;;;10.22;100.00;101636.13;10394564;28;20524;-65
2023/01/06 01:22:13;;;;;;;9.93;3.38;;;;;;;10.18;100.00;101621.25;10391589;28;20086;-65
2023/01/06 01:27:13;;;;;;;5.68;3.03;;;;;;;10.05;100.00;101621.84;10369133;28;20049;-65
2023/01/06 01:32:14;;;;;;;4.45;2.92;;;;;;;10.20;100.00;101603.81;10380040;28;20041;-66
2023/01/06 01:37:14;;;;;;;13.10;3.00;;;;;;;10.21;100.00;101594.69;10380083;28;20053;-66
2023/01/06 01:42:17;;;;;;;23.17;2.80;;;;;;;10.13;100.00;101588.47;10377987;28;20041;-65
2023/01/06 01:47:32;;;;;;;11.52;3.72;;;;;;;10.08;100.00;101570.03;10379444;28;20042;-66
2023/01/06 01:52:33;;;;;;;6.68;2.38;;;;;;;10.11;100.00;101558.03;10379959;28;20030;-65
2023/01/06 01:58:07;;;;;;;5.65;2.65;;;;;;;10.21;100.00;101567.63;10378403;28;20038;-66
2023/01/06 02:03:08;;;;;;;7.80;3.10;;;;;;;10.19;100.00;101571.50;10375278;28;20049;-66
2023/01/06 02:08:27;;;;;;;3.25;2.92;;;;;;;10.24;100.00;101569.09;10379267;28;20394;-65
2023/01/06 02:13:27;;;;;;;7.13;2.97;;;;;;;10.11;100.00;101555.31;10378446;28;20034;-65
2023/01/06 02:18:38;;;;;;;4.78;2.88;;;;;;;10.10;100.00;101540.94;10378656;28;20049;-66
2023/01/06 02:23:41;;;;;;;6.95;1.90;;;;;;;10.00;100.00;101541.19;10378036;28;20481;-66
2023/01/06 02:29:20;;;;;;;10.70;3.00;;;;;;;9.97;100.00;101549.66;10377714;28;20373;-65
2023/01/06 02:34:31;;;;;;;8.82;2.40;;;;;;;10.04;100.00;101544.38;10376650;28;20034;-66
2023/01/06 02:39:43;;;;;;;6.10;3.15;;;;;;;10.11;100.00;101522.84;10360586;28;20061;-65
2023/01/06 02:45:02;;;;;;;4.93;1.83;;;;;;;10.15;100.00;101510.66;10392895;28;20049;-66
2023/01/06 02:50:21;;;;;;;3.78;1.48;;;;;;;10.17;100.00;101493.19;10378507;28;20034;-66
2023/01/06 02:55:35;;;;;;;11.35;1.30;;;;;;;10.08;100.00;101493.44;10376310;28;20109;-66
2023/01/06 03:00:39;;;;;;;4.88;2.83;;;;;;;10.16;100.00;101493.38;10375008;28;20079;-65
2023/01/06 03:05:40;;;;;;;2.15;2.05;;;;;;;10.19;100.00;101488.44;10359005;28;20116;-65
2023/01/06 03:10:41;;;;;;;5.65;1.95;;;;;;;10.22;100.00;101498.91;10359640;28;20032;-65
2023/01/06 03:15:41;;;;;;;1.90;1.67;;;;;;;10.13;100.00;101493.75;10359018;28;20072;-66
2023/01/06 03:20:41;;;;;;;7.60;2.25;;;;;;;10.20;100.00;101475.75;10376092;28;20058;-66
2023/01/06 03:25:42;;;;;;;3.58;2.70;;;;;;;10.04;100.00;101468.59;10376889;28;20168;-65
2023/01/06 03:30:49;;;;;;;3.72;1.55;;;;;;;10.00;100.00;101448.34;10375532;28;20394;-66
2023/01/06 03:36:01;;;;;;;3.83;2.30;;;;;;;10.04;100.00;101451.53;10376673;28;20033;-65
2023/01/06 03:47:05;;;;;;;6.05;2.30;;;;;;;10.13;100.00;101429.63;10372572;28;20042;-65
2023/01/06 03:52:30;;;;;;;3.22;1.98;;;;;;;10.10;100.00;101440.81;10357645;28;20038;-66
2023/01/06 03:57:39;;;;;;;5.63;1.88;;;;;;;10.15;100.00;101432.16;10359953;28;20038;-65
2023/01/06 04:02:40;;;;;;;3.47;1.75;;;;;;;10.08;100.00;101431.19;10358045;28;20033;-65
2023/01/06 04:07:40;;;;;;;4.65;2.33;;;;;;;10.14;100.00;101428.59;10358440;28;20029;-65
2023/01/06 04:12:41;;;;;;;5.28;2.20;;;;;;;10.12;100.00;101432.53;10373513;28;20478;-65
2023/01/06 04:17:41;;;;;;;3.83;1.70;;;;;;;10.13;100.00;101397.16;10383484;28;20034;-66
2023/01/06 04:22:42;;;;;;;1.90;1.80;;;;;;;10.09;100.00;101401.25;10387108;28;20052;-65
2023/01/06 04:27:42;;;;;;;2.88;1.40;;;;;;;10.19;100.00;101392.88;10380689;28;20026;-64
2023/01/06 04:32:43;;;;;;;4.85;2.47;;;;;;;10.20;100.00;101408.09;10382213;28;20042;-65
2023/01/06 04:37:43;;;;;;;1.63;1.50;;;;;;;10.19;100.00;101399.13;10382676;28;20038;-65
2023/01/06 04:48:03;;;;;;;4.35;1.48;;;;;;;10.01;100.00;101377.81;10381722;28;20077;-65
2023/01/06 04:53:04;;;;;;;2.92;2.00;;;;;;;9.77;100.00;101369.91;10382081;28;20450;-66
2023/01/06 04:58:04;;;;;;;6.07;1.70;;;;;;;9.69;100.00;101367.25;10366953;28;20046;-65
2023/01/06 05:03:05;;;;;;;2.97;2.35;;;;;;;9.68;100.00;101371.81;10385466;28;20466;-66
2023/01/06 05:08:05;;;;;;;8.38;2.67;;;;;;;9.69;100.00;101369.94;10382121;28;20037;-67
2023/01/06 05:13:05;;;;;;;5.10;2.20;;;;;;;9.49;100.00;101362.31;10381420;28;20038;-66
2023/01/06 05:18:06;;;;;;;3.33;2.17;;;;;;;9.41;100.00;101365.09;10380605;28;20038;-66
2023/01/06 05:23:06;;;;;;;1.95;1.60;;;;;;;9.51;100.00;101344.06;10379293;28;20061;-66
2023/01/06 05:28:07;;;;;;;1.75;1.50;;;;;;;9.47;100.00;101374.31;10376080;28;20528;-66
2023/01/06 05:33:07;;;;;;;1.92;1.20;;;;;;;9.46;100.00;101365.38;10379028;28;20034;-66
2023/01/06 05:38:07;;;;;;;2.55;1.70;;;;;;;9.46;100.00;101364.53;10378180;28;20034;-66
2023/01/06 05:43:08;;;;;;;2.03;1.92;;;;;;;9.52;100.00;101372.78;10388094;28;20400;-67
2023/01/06 05:48:08;;;;;;;1.90;1.70;;;;;;;9.51;100.00;101357.56;10383284;28;20041;-67
2023/01/06 05:53:08;;;;;;;2.20;2.00;;;;;;;9.53;100.00;101363.63;10377654;28;20065;-66
2023/01/06 05:58:09;;;;;;;6.07;1.70;;;;;;;9.60;100.00;101376.44;10376420;28;20401;-66
2023/01/06 06:03:09;;;;;;;3.33;2.97;;;;;;;9.61;100.00;101380.84;10377432;28;20042;-65
2023/01/06 06:08:10;;;;;;;5.30;2.88;;;;;;;9.59;100.00;101388.28;10375183;28;20462;-65
2023/01/06 06:13:10;;;;;;;2.25;2.05;;;;;;;9.57;100.00;101390.31;10376283;28;20052;-65
2023/01/06 06:18:10;;;;;;;6.88;2.90;;;;;;;9.57;100.00;101412.78;10376657;28;20030;-65
2023/01/06 06:23:11;;;;;;;4.50;2.70;;;;;;;9.58;100.00;101421.75;10278652;28;1238711;-65
2023/01/06 06:28:11;;;;;;;5.68;1.90;;;;;;;9.60;100.00;101457.53;10388831;28;20462;-65
2023/01/06 06:33:12;;;;;;;3.63;2.45;;;;;;;9.54;100.00;101446.44;10403845;28;20381;-64
2023/01/06 06:38:12;;;;;;;5.22;2.95;;;;;;;9.55;100.00;101442.72;10403681;28;20092;-65
2023/01/06 06:43:13;;;;;;;4.25;3.85;;;;;;;9.54;100.00;101454.56;10419637;28;20120;-65
2023/01/06 06:48:14;;;;;;;7.15;2.58;;;;;;;9.49;100.00;101456.94;10409273;28;20486;-65
2023/01/06 06:53:14;;;;;;;5.20;1.83;;;;;;;9.50;100.00;101461.31;10418218;28;20037;-65
2023/01/06 06:58:14;;;;;;;6.93;2.95;;;;;;;9.57;100.00;101474.13;10400732;28;20037;-64
2023/01/06 07:03:15;;;;;;;12.52;3.40;;;;;;;9.58;100.00;101482.06;10416536;28;20516;-64
2023/01/06 07:08:15;;;;;;;15.70;4.15;;;;;;;9.54;100.00;101484.28;10399712;28;20049;-65
2023/01/06 07:13:16;;;;;;;20.58;4.03;;;;;;;9.51;100.00;101503.56;10417112;28;20037;-64
2023/01/06 07:18:17;;;;;;;17.63;4.28;;;;;;;9.55;100.00;101512.16;10418089;28;20040;-65
2023/01/06 07:23:17;;;;;;;10.20;3.28;;;;;;;9.43;100.00;101513.56;10422997;28;20076;-64
2023/01/06 07:28:17;;;;;;;12.52;3.53;;;;;;;9.37;100.00;101535.88;10406058;28;20445;-66
2023/01/06 07:33:18;;;;;;;10.13;2.80;;;;;;;9.34;100.00;101539.78;10399555;28;20396;-64
2023/01/06 07:38:18;;;;;;;6.32;3.95;;;;;;;9.28;100.00;101540.47;10399406;28;20120;-66
2023/01/06 07:43:19;;;;;;;8.93;3.97;;;;;;;9.10;100.00;101539.88;10416198;28;20033;-65
2023/01/06 07:48:19;;;;;;;13.95;4.03;;;;;;;8.88;100.00;101563.84;10415746;28;20408;-64
2023/01/06 07:53:20;;;;;;;7.00;3.13;;;;;;;8.65;100.00;101560.13;10398301;28;20059;-65
2023/01/06 07:58:22;;;;;;;20.08;4.18;;;;;;;8.47;100.00;101550.34;10415385;28;20031;-65
2023/01/06 08:03:23;;;;;;;14.73;2.80;;;;;;;8.34;100.00;101560.78;10398214;28;20101;-65
2023/01/06 08:08:23;;;;;;;12.20;2.45;;;;;;;8.30;100.00;101571.06;10415352;28;20033;-64
2023/01/06 08:13:24;;;;;;;13.40;3.90;;;;;;;8.16;100.00;101583.31;10415356;28;20197;-64
2023/01/06 08:18:24;;;;;;;14.82;3.88;;;;;;;8.12;100.00;101594.63;10415790;28;20033;-64
2023/01/06 08:23:25;;;;;;;8.05;2.35;;;;;;;8.38;100.00;101618.81;10419919;28;20394;-66
2023/01/06 08:28:25;;;;;;;9.02;2.10;;;;;;;8.95;100.00;101626.16;10418294;28;20397;-65
2023/01/06 08:33:26;;;;;;;9.07;3.55;;;;;;;9.32;100.00;101639.13;10382062;28;20048;-65
2023/01/06 08:38:27;;;;;;;5.47;2.20;;;;;;;9.57;100.00;101645.31;10397479;28;20477;-65
2023/01/06 08:43:28;;;;;;;8.23;3.45;;;;;;;9.77;100.00;101649.31;10397260;28;20033;-65
2023/01/06 08:48:29;;;;;;;5.55;2.88;;;;;;;9.95;100.00;101654.50;10386090;28;20037;-65
2023/01/06 08:53:30;;;;;;;7.22;3.20;;;;;;;10.19;100.00;101666.25;10422467;28;20109;-65
2023/01/06 08:58:30;;;;;;;13.82;3.63;;;;;;;10.14;100.00;101663.22;10396671;28;20477;-69
2023/01/06 09:03:31;;;;;;;5.15;2.40;;;;;;;10.37;100.00;101666.88;10420368;28;20041;-64
2023/01/06 09:08:31;;;;;;;10.57;2.67;;;;;;;10.55;100.00;101666.59;10422198;28;20117;-64
2023/01/06 09:13:33;;;;;;;11.80;2.58;;;;;;;10.68;100.00;101661.41;10422059;28;20029;-63
2023/01/06 09:18:33;;;;;;;3.25;2.70;;;;;;;10.98;100.00;101666.16;10402984;28;20037;-66
2023/01/06 09:23:33;;;;;;;3.00;1.70;;;;;;;11.20;100.00;101681.53;10423178;28;20100;-65
2023/01/06 09:28:34;;;;;;;10.50;3.58;;;;;;;11.46;100.00;101683.84;10420826;28;20469;-65
2023/01/06 09:33:34;;;;;;;16.33;2.53;;;;;;;11.53;100.00;101692.09;10420808;28;20120;-65
2023/01/06 09:38:35;;;;;;;4.90;2.72;;;;;;;11.64;100.00;101700.59;10420710;28;20061;-64
2023/01/06 09:43:38;;;;;;;12.52;3.13;;;;;;;11.82;100.00;101708.41;10422616;28;20033;-65
2023/01/06 09:48:45;;;;;;;3.03;2.28;;;;;;;11.76;100.00;101709.13;10423954;28;20048;-64
2023/01/06 09:53:58;;;;;;;15.73;3.17;;;;;;;11.06;100.00;101707.56;10401924;28;20045;-65
2023/01/06 09:59:10;;;;;;;9.05;2.50;;;;;;;10.62;100.00;101715.47;10420112;28;20088;-65
2023/01/06 10:04:15;;;;;;;5.60;3.53;;;;;;;10.43;100.00;101704.06;10401807;28;20096;-65
2023/01/06 10:09:43;;;;;;;6.10;3.15;;;;;;;10.92;100.00;101703.78;10402339;28;20453;-65
2023/01/06 10:14:49;;;;;;;4.63;2.70;;;;;;;11.26;100.00;101726.88;10418532;28;20040;-65
2023/01/06 10:20:14;;;;;;;9.48;2.55;;;;;;;11.93;100.00;101720.69;10400885;28;20100;-65
2023/01/06 10:25:19;;;;;;;1.85;1.70;;;;;;;11.96;100.00;101722.19;10419273;28;20029;-66
2023/01/06 10:30:36;;;;;;;4.28;2.08;;;;;;;11.85;100.00;101723.50;10401385;28;20037;-65
2023/01/06 10:35:36;;;;;;;3.88;2.03;;;;;;;12.09;100.00;101731.38;10401124;28;20084;-65
2023/01/06 10:40:36;;;;;;;5.78;1.90;;;;;;;12.43;100.00;101734.53;10400365;28;20152;-66
2023/01/06 10:45:37;;;;;;;3.55;1.50;;;;;;;12.65;100.00;101719.97;10418025;28;20393;-66
2023/01/06 10:50:38;;;;;;;1.58;1.45;;;;;;;12.85;100.00;101720.19;10400483;28;20116;-65
2023/01/06 10:55:53;;;;;;;4.35;1.90;;;;;;;12.87;100.00;101723.56;10419480;28;20072;-65
2023/01/06 11:01:08;;;;;;;4.55;1.95;;;;;;;12.84;100.00;101726.66;10423192;28;20453;-67
2023/01/06 11:06:17;;;;;;;2.92;2.05;;;;;;;12.60;100.00;101716.97;10412009;28;20041;-65
2023/01/06 11:11:17;;;;;;;3.70;1.48;;;;;;;12.22;100.00;101730.72;10382731;28;20465;-65
2023/01/06 11:16:26;;;;;;;3.50;1.90;;;;;;;11.86;100.00;101720.59;10398015;28;20043;-66
2023/01/06 11:21:40;;;;;;;3.80;2.20;;;;;;;11.58;100.00;101714.94;10384211;28;20076;-65
2023/01/06 11:27:00;;;;;;;7.13;1.85;;;;;;;11.52;100.00;101714.78;10415527;28;20183;-66
2023/01/06 11:32:11;;;;;;;2.47;1.63;;;;;;;11.37;100.00;101707.47;10399539;28;20037;-65
2023/01/06 11:37:12;;;;;;;9.48;2.47;;;;;;;11.50;100.00;101708.72;10382865;28;20034;-66
2023/01/06 11:42:13;;;;;;;5.45;1.95;;;;;;;11.62;100.00;101702.66;10415265;28;20492;-66
2023/01/06 11:47:15;;;;;;;3.45;2.05;;;;;;;11.45;100.00;101692.16;10397742;28;20071;-66
2023/01/06 11:52:26;;;;;;;3.42;1.90;;;;;;;11.26;100.00;101685.38;10398196;28;20029;-66
2023/01/06 11:57:50;;;;;;;7.20;3.08;;;;;;;11.16;100.00;101682.91;10399230;28;20026;-67
2023/01/06 12:03:06;;;;;;;6.50;2.53;;;;;;;11.28;100.00;101695.00;10415619;28;20056;-66
2023/01/06 12:08:23;;;;;;;2.95;2.70;;;;;;;11.62;100.00;101685.56;10416805;28;20400;-66
2023/01/06 12:13:23;;;;;;;12.18;2.65;;;;;;;12.64;100.00;101685.69;10398734;28;20033;-65
2023/01/06 12:18:27;;;;;;;5.70;1.83;;;;;;;13.06;100.00;101686.75;10414994;28;20049;-67
2023/01/06 12:23:30;;;;;;;6.47;2.63;;;;;;;13.47;100.00;101686.94;10381133;28;20460;-67
2023/01/06 12:28:33;;;;;;;5.13;2.35;;;;;;;13.47;100.00;101686.09;10396515;28;20116;-66
2023/01/06 12:33:39;;;;;;;4.13;2.00;;;;;;;13.49;100.00;101684.00;10381934;28;20045;-66
2023/01/06 12:38:56;;;;;;;3.83;2.63;;;;;;;13.61;100.00;101674.25;10387627;28;20029;-67
2023/01/06 12:44:18;;;;;;;4.93;2.30;;;;;;;14.18;100.00;101666.84;10405859;28;20026;-67
2023/01/06 12:49:25;;;;;;;3.00;2.33;;;;;;;14.33;100.00;101667.53;10405537;28;20033;-66
2023/01/06 12:54:34;;;;;;;;;;;;;;;14.05;100.00;101677.66;10421583;28;20441;-65
2023/01/06 12:59:45;;;;;;;2.42;2.20;;;;;;;13.95;100.00;101667.97;10422691;28;19963;-66
2023/01/06 13:04:46;;;;;;;3.83;1.70;;;;;;;13.15;100.00;101671.97;10423296;28;20025;-65
2023/01/06 13:09:49;;;;;;;9.13;2.42;;;;;;;12.43;100.00;101664.75;10422353;28;20029;-66
2023/01/06 13:15:04;;;;;;;8.05;2.05;;;;;;;11.88;100.00;101671.56;10403275;28;20029;-66
2023/01/06 13:20:05;;;;;;;5.15;1.85;;;;;;;11.48;100.00;101670.09;10423511;28;20051;-66
2023/01/06 13:25:05;;;;;;;7.53;1.85;;;;;;;11.34;100.00;101679.88;10408143;28;20038;-66
2023/01/06 13:30:17;;;;;;;6.43;2.20;;;;;;;10.99;100.00;101690.34;10421612;28;20157;-66
2023/01/06 13:35:26;;;;;;;4.47;1.30;;;;;;;10.81;100.00;101678.94;10421306;28;20135;-64
2023/01/06 13:40:28;;;;;;;7.55;2.05;;;;;;;10.78;100.00;101673.88;10419333;28;20033;-66
2023/01/06 13:45:33;;;;;;;2.92;2.42;;;;;;;10.63;100.00;101684.66;10402722;28;20049;-66
2023/01/06 13:50:36;;;;;;;8.95;1.85;;;;;;;10.55;100.00;101680.13;10401994;28;20159;-66
2023/01/06 13:55:37;;;;;;;6.15;1.63;;;;;;;10.63;100.00;101669.25;10402382;28;20461;-66
2023/01/06 14:00:41;;;;;;;9.73;2.33;;;;;;;10.56;100.00;101643.03;10386064;28;20033;-66
2023/01/06 14:05:41;;;;;;;6.47;1.40;;;;;;;10.56;100.00;101660.16;10385697;28;20029;-67
2023/01/06 14:10:42;;;;;;;13.30;1.90;;;;;;;10.56;100.00;101662.88;10418684;28;20504;-65
2023/01/06 14:15:54;;;;;;;9.27;2.38;;;;;;;10.54;100.00;101667.63;10418931;28;20393;-67
2023/01/06 14:21:03;;;;;;;3.58;1.20;;;;;;;10.46;100.00;101664.94;10386600;28;20049;-65
2023/01/06 14:26:04;;;;;;;2.42;1.85;;;;;;;10.35;100.00;101660.78;10385273;28;20488;-66
2023/01/06 14:31:23;;;;;;;4.20;1.23;;;;;;;10.30;100.00;101657.75;10419843;28;20040;-65
2023/01/06 14:36:23;;;;;;;5.45;1.83;;;;;;;10.19;100.00;101656.25;10420081;28;20531;-67
2023/01/06 14:41:36;;;;;;;3.83;1.65;;;;;;;10.08;100.00;101650.38;10383611;28;20038;-66
2023/01/06 14:46:47;;;;;;;3.97;1.70;;;;;;;10.01;100.00;101652.94;10400235;28;20458;-66
2023/01/06 14:51:48;;;;;;;5.75;1.60;;;;;;;9.89;100.00;101652.50;10384545;28;20072;-66
2023/01/06 14:56:56;;;;;;;3.17;1.67;;;;;;;9.80;100.00;101655.41;10367538;28;20238;-66
2023/01/06 15:02:15;;;;;;;3.17;1.80;;;;;;;9.66;100.00;101659.66;10417442;28;20033;-65
2023/01/06 15:07:17;;;;;;;10.88;2.15;;;;;;;9.60;100.00;101652.22;10405423;28;20076;-65
2023/01/06 15:12:30;;;;;;;8.88;2.08;;;;;;;9.54;100.00;101643.81;10420655;28;20413;-66
2023/01/06 15:17:31;;;;;;;3.75;2.55;;;;;;;9.41;100.00;101634.53;10418974;28;20037;-66
2023/01/06 15:22:31;;;;;;;5.13;2.75;;;;;;;9.36;100.00;101634.22;10382368;28;20493;-65
2023/01/06 15:27:31;;;;;;;2.58;2.13;;;;;;;9.27;100.00;101638.78;10382741;28;20033;-66
2023/01/06 15:32:32;;;;;;;2.65;2.30;;;;;;;9.21;100.00;101643.00;10382697;28;20124;-66
2023/01/06 15:37:33;;;;;;;6.97;3.08;;;;;;;9.14;100.00;101646.56;10402785;28;20084;-67
2023/01/06 15:42:35;;;;;;;7.28;3.47;;;;;;;9.11;100.00;101638.81;10406431;28;20033;-66
2023/01/06 15:47:37;;;;;;;6.68;2.80;;;;;;;9.10;100.00;101631.72;10417704;28;20033;-65
2023/01/06 15:52:39;;;;;;;9.05;4.30;;;;;;;9.12;100.00;101626.97;10416729;28;20029;-65
2023/01/06 15:57:39;;;;;;;6.97;3.20;;;;;;;9.14;100.00;101622.25;10381050;28;20029;-66
2023/01/06 16:02:39;;;;;;;9.18;3.25;;;;;;;9.13;100.00;101623.28;10417534;28;20038;-66
2023/01/06 16:07:41;;;;;;;13.73;3.58;;;;;;;9.13;100.00;101617.88;10418750;28;20444;-65
2023/01/06 16:12:42;;;;;;;6.43;2.90;;;;;;;9.11;100.00;101617.19;10404971;28;20037;-65
2023/01/06 16:17:46;;;;;;;6.72;2.75;;;;;;;9.06;100.00;101625.78;10390348;28;20460;-65
2023/01/06 16:22:48;;;;;;;6.95;3.22;;;;;;;9.06;100.00;101621.25;10405711;28;20056;-65
2023/01/06 16:27:49;;;;;;;3.13;2.92;;;;;;;9.02;100.00;101613.63;10389320;28;20046;-66
2023/01/06 16:32:51;;;;;;;7.13;3.45;;;;;;;9.05;100.00;101618.72;10389362;28;20061;-66
2023/01/06 16:37:52;;;;;;;9.30;3.50;;;;;;;9.15;100.00;101618.53;10405576;28;20033;-66
2023/01/06 16:42:59;;;;;;;6.15;3.70;;;;;;;9.33;100.00;101600.25;10423466;28;20037;-67
2023/01/06 16:47:59;;;;;;;7.32;3.13;;;;;;;9.50;100.00;101606.47;10422756;28;20025;-66
2023/01/06 16:53:20;;;;;;;10.55;3.25;;;;;;;9.66;100.00;101611.81;10423594;28;20469;-65
2023/01/06 16:58:27;;;;;;;5.93;2.88;;;;;;;9.74;100.00;101617.22;10411691;28;20030;-66
2023/01/06 17:03:28;;;;;;;4.28;3.05;;;;;;;9.82;100.00;101612.78;10423151;28;20045;-66
2023/01/06 17:08:35;;;;;;;5.25;2.78;;;;;;;9.89;100.00;101603.81;10422900;28;20045;-66
2023/01/06 17:13:35;;;;;;;10.38;4.15;;;;;;;9.93;100.00;101605.13;10422061;28;20060;-65
2023/01/06 17:18:55;;;;;;;7.75;3.85;;;;;;;9.99;100.00;101615.25;10421693;28;20099;-65
2023/01/06 17:23:57;;;;;;;5.85;2.97;;;;;;;9.96;100.00;101615.59;10388388;28;20099;-66
2023/01/06 17:28:58;;;;;;;11.80;3.75;;;;;;;10.02;100.00;101611.38;10403435;28;20037;-66
2023/01/06 17:34:12;;;;;;;11.90;5.15;;;;;;;10.10;100.00;101608.59;10402982;28;20277;-66
2023/01/06 17:39:36;;;;;;;5.40;4.40;;;;;;;10.13;100.00;101585.75;10421911;28;20086;-66
2023/01/06 17:44:37;;;;;;;3.70;3.33;;;;;;;10.26;100.00;101588.75;10421337;28;20181;-65
2023/01/06 17:49:37;;;;;;;7.18;4.05;;;;;;;10.24;100.00;101590.75;10421287;28;20425;-67
2023/01/06 17:59:57;;;;;;;9.10;6.65;;;;;;;10.19;100.00;101590.47;10419322;28;20112;-66
2023/01/06 18:05:00;;;;;;;10.30;6.55;;;;;;;10.24;100.00;101597.03;10401950;28;20034;-66
2023/01/06 18:10:00;;;;;;;7.35;6.65;;;;;;;10.30;100.00;101600.91;10386035;28;20029;-66
2023/01/06 18:15:00;;;;;;;9.60;6.68;;;;;;;10.34;100.00;101609.50;10419785;28;20519;-65
2023/01/06 18:20:01;;;;;;;14.63;7.80;;;;;;;10.28;100.00;101602.97;10402114;28;20033;-66
2023/01/06 18:25:02;;;;;;;13.55;8.43;;;;;;;10.38;100.00;101595.44;10421688;28;20119;-65
2023/01/06 18:30:20;;;;;;;11.00;7.65;;;;;;;10.39;100.00;101599.84;10385626;28;20026;-65
2023/01/06 18:35:26;;;;;;;10.20;8.00;;;;;;;10.33;100.00;101597.00;10417817;28;20437;-66
2023/01/06 18:40:26;;;;;;;13.98;9.75;;;;;;;10.39;100.00;101590.88;10401826;28;20037;-66
2023/01/06 18:45:37;;;;;;;9.75;8.73;;;;;;;10.40;100.00;101581.72;10418441;28;20454;-65
2023/01/06 18:50:40;;;;;;;14.25;12.75;;;;;;;10.34;100.00;101577.88;10400691;28;20529;-65
2023/01/06 18:55:42;;;;;;;14.40;12.90;;;;;;;10.30;100.00;101581.13;10400296;28;20494;-67
2023/01/06 19:00:53;;;;;;;16.52;12.73;;;;;;;10.32;100.00;101574.50;10399922;28;20030;-66
2023/01/06 19:06:04;;;;;;;16.38;14.60;;;;;;;10.32;100.00;101563.69;10417487;28;20405;-65
2023/01/06 19:11:14;;;;;;;14.50;12.35;;;;;;;10.29;100.00;101560.50;10382372;28;20025;-66
2023/01/06 19:16:28;;;;;;;16.20;14.52;;;;;;;10.11;100.00;101550.75;10405623;28;20034;-66
2023/01/06 19:21:28;;;;;;;13.88;12.18;;;;;;;10.16;100.00;101558.34;10423245;28;20037;-66
2023/01/06 19:26:30;;;;;;;14.98;13.55;;;;;;;10.25;100.00;101555.41;10418574;28;20045;-66
2023/01/06 19:31:30;;;;;;;12.13;10.75;;;;;;;10.32;100.00;101542.03;10416465;28;20021;-66
2023/01/06 19:36:45;;;;;;;19.48;10.38;;;;;;;10.41;100.00;101546.34;10415680;28;20033;-67
2023/01/06 19:41:46;;;;;;;12.50;10.48;;;;;;;10.37;100.00;101520.69;10415639;28;20489;-66
2023/01/06 19:46:47;;;;;;;10.52;9.63;;;;;;;10.35;100.00;101508.34;10398881;28;20065;-66
2023/01/06 19:51:48;;;;;;;13.00;11.13;;;;;;;10.43;100.00;101517.25;10415928;28;20080;-66
2023/01/06 19:56:49;;;;;;;10.27;9.20;;;;;;;10.55;100.00;101541.16;10398289;28;20388;-66
2023/01/06 20:02:02;;;;;;;9.85;7.88;;;;;;;10.58;100.00;101530.81;10415760;28;20037;-65
2023/01/06 20:07:03;;;;;;;10.07;8.45;;;;;;;10.60;100.00;101527.94;10401522;28;20107;-66
2023/01/06 20:12:03;;;;;;;12.15;10.23;;;;;;;10.65;100.00;101530.94;10422750;28;20029;-67
2023/01/06 20:17:04;;;;;;;11.10;9.40;;;;;;;10.64;100.00;101526.53;10415465;28;20048;-66
2023/01/06 20:22:04;;;;;;;8.60;7.80;;;;;;;10.59;100.00;101534.34;10415227;28;20049;-67
2023/01/06 20:27:04;;;;;;;11.70;10.60;;;;;;;10.62;100.00;101525.88;10413996;28;20370;-67
2023/01/06 20:32:05;;;;;;;16.90;10.43;;;;;;;10.61;100.00;101518.78;10416223;28;20350;-66
2023/01/06 20:37:05;;;;;;;15.93;12.00;;;;;;;10.67;100.00;101523.47;10415060;28;20037;-65
2023/01/06 20:42:06;;;;;;;13.40;11.93;;;;;;;10.64;100.00;101508.41;10414833;28;20033;-66
2023/01/06 20:47:06;;;;;;;14.57;13.07;;;;;;;10.63;100.00;101508.63;10415397;28;20377;-66
2023/01/06 20:52:06;;;;;;;15.05;12.68;;;;;;;10.75;100.00;101520.66;10414771;28;20033;-66
2023/01/06 20:57:07;;;;;;;11.25;10.15;;;;;;;10.76;100.00;101522.38;10415465;28;20038;-65
2023/01/06 21:02:07;;;;;;;13.18;10.52;;;;;;;10.69;100.00;101521.44;10421774;28;20045;-66
2023/01/06 21:07:08;;;;;;;10.60;9.60;;;;;;;10.64;100.00;101515.72;10405195;28;20071;-66
2023/01/06 21:12:08;;;;;;;9.15;8.23;;;;;;;10.56;100.00;101527.47;10405918;28;20378;-66
2023/01/06 21:17:08;;;;;;;14.23;11.82;;;;;;;10.56;100.00;101526.59;10425752;28;20049;-67
2023/01/06 21:22:09;;;;;;;17.08;12.93;;;;;;;10.55;100.00;101523.06;10404967;28;20161;-68
2023/01/06 21:27:09;;;;;;;13.02;11.73;;;;;;;10.59;100.00;101526.22;10421918;28;20466;-67
2023/01/06 21:32:10;;;;;;;15.52;14.00;;;;;;;10.61;100.00;101526.91;10421900;28;20029;-66
2023/01/06 21:37:10;;;;;;;16.02;14.45;;;;;;;10.56;100.00;101507.63;10421892;28;20084;-67
2023/01/06 21:47:30;;;;;;;15.52;14.02;;;;;;;10.54;100.00;101513.25;10422676;28;20465;-68
2023/01/06 21:52:30;;;;;;;14.85;13.43;;;;;;;10.58;100.00;101505.59;10420355;28;20063;-67
2023/01/06 21:57:31;;;;;;;12.85;11.50;;;;;;;10.63;100.00;101509.44;10420212;28;20045;-66
2023/01/06 22:02:31;;;;;;;10.65;9.65;;;;;;;10.65;100.00;101498.41;10401871;28;20025;-68
2023/01/06 22:07:32;;;;;;;9.65;8.75;;;;;;;10.65;100.00;101504.69;10420325;28;20045;-66
2023/01/06 22:12:32;;;;;;;10.90;8.70;;;;;;;10.62;100.00;101504.19;10420507;28;20060;-67
2023/01/06 22:17:33;;;;;;;9.02;8.13;;;;;;;10.53;100.00;101498.03;10419707;28;20041;-67
2023/01/06 22:22:33;;;;;;;10.50;8.57;;;;;;;10.57;100.00;101496.63;10402308;28;20053;-67
2023/01/06 22:27:34;;;;;;;9.18;8.13;;;;;;;10.59;100.00;101488.31;10390177;28;20068;-66
2023/01/06 22:32:44;;;;;;;6.32;5.75;;;;;;;10.52;100.00;101487.38;10419469;28;20397;-66
2023/01/06 22:37:45;;;;;;;9.07;8.27;;;;;;;10.52;100.00;101488.22;10419998;28;20065;-66
2023/01/06 22:42:45;;;;;;;9.10;7.78;;;;;;;10.57;100.00;101502.06;10419582;28;20092;-66
2023/01/06 22:47:45;;;;;;;9.23;8.40;;;;;;;10.56;100.00;101489.56;10404610;28;20034;-66
2023/01/06 22:52:46;;;;;;;8.50;7.78;;;;;;;10.51;100.00;101501.94;10403061;28;20060;-66
2023/01/06 22:57:46;;;;;;;9.10;8.18;;;;;;;10.57;100.00;101512.06;10417445;28;20061;-66
2023/01/06 23:02:47;;;;;;;6.45;5.85;;;;;;;10.43;100.00;101505.53;10418247;28;20038;-67
2023/01/06 23:07:47;;;;;;;7.50;6.75;;;;;;;10.44;100.00;101505.38;10399746;28;20081;-66
2023/01/06 23:12:47;;;;;;;7.97;6.97;;;;;;;10.45;100.00;101506.22;10417153;28;20057;-66
2023/01/06 23:17:48;;;;;;;10.00;7.97;;;;;;;10.38;100.00;101487.16;10399251;28;20041;-65
2023/01/06 23:22:48;;;;;;;10.93;7.20;;;;;;;10.27;100.00;101479.44;10398826;28;20054;-66
2023/01/06 23:27:49;;;;;;;8.60;7.22;;;;;;;10.23;100.00;101488.94;10415968;28;20065;-65